Time;durP1;ratioP1;P1;durP2;ratioP2;P2;SDS_P1;SDS_P2;PMS_P1;PMS_P2;Temp;Humidity;BMP_temperature;BMP_pressure;BME280_temperature;BME280_humidity;BME280_pressure;Samples;Min_cycle;Max_cycle;Signal;HPM_P1;HPM_P2
2024/01/30 00:01:20;;;;;;;10.50;5.67;;;5.50;99.90;;;;;;5055299;28;20988;-71
2024/01/30 00:03:50;;;;;;;9.13;5.93;;;5.50;99.90;;;;;;5055175;28;20461;-71
2024/01/30 00:06:20;;;;;;;15.03;5.30;;;5.50;99.90;;;;;;5069719;28;20461;-71
2024/01/30 00:09:01;;;;;;;7.90;5.30;;;5.50;99.90;;;;;;5055206;28;20489;-71
2024/01/30 00:11:28;;;;;;;7.63;5.37;;;5.50;99.90;;;;;;5059100;28;20524;-71
2024/01/30 00:13:56;;;;;;;9.60;5.03;;;5.50;99.90;;;;;;5054525;28;20496;-71
2024/01/30 00:16:25;;;;;;;7.33;5.17;;;5.50;99.90;;;;;;5070306;28;20988;-74
2024/01/30 00:18:59;;;;;;;13.73;4.90;;;5.50;99.90;;;;;;5075212;28;20425;-75
2024/01/30 00:21:26;;;;;;;9.10;5.03;;;5.50;99.90;;;;;;5074893;28;20476;-72
2024/01/30 00:24:16;;;;;;;10.37;5.23;;;5.40;99.90;;;;;;5075322;28;20431;-71
2024/01/30 00:26:43;;;;;;;8.17;5.17;;;5.40;99.90;;;;;;5075196;28;20506;-72
2024/01/30 00:29:10;;;;;;;11.00;4.97;;;5.40;99.90;;;;;;5076939;28;20523;-71
2024/01/30 00:31:38;;;;;;;9.23;5.77;;;5.40;99.90;;;;;;5077175;28;20469;-71
2024/01/30 00:34:14;;;;;;;11.07;5.90;;;5.40;99.90;;;;;;5074380;28;20921;-71
2024/01/30 00:36:42;;;;;;;8.87;4.80;;;5.40;99.90;;;;;;5055027;28;20500;-71
2024/01/30 00:39:09;;;;;;;10.27;5.40;;;5.40;99.90;;;;;;5054255;28;20426;-71
2024/01/30 00:41:37;;;;;;;10.87;5.70;;;5.30;99.90;;;;;;5054302;28;20545;-71
2024/01/30 00:44:13;;;;;;;9.10;6.03;;;5.30;99.90;;;;;;5052797;28;20467;-70
2024/01/30 00:46:41;;;;;;;11.30;6.63;;;5.30;99.90;;;;;;5054119;28;20464;-72
2024/01/30 00:49:09;;;;;;;10.30;6.27;;;5.40;99.90;;;;;;5054131;28;20516;-72
2024/01/30 00:51:36;;;;;;;10.50;6.53;;;5.30;99.90;;;;;;5053229;28;20532;-72
2024/01/30 00:54:06;;;;;;;7.73;5.10;;;5.30;99.90;;;;;;5053969;28;20434;-72
2024/01/30 00:56:37;;;;;;;12.17;5.83;;;5.30;99.90;;;;;;5054331;28;20727;-72
2024/01/30 00:59:10;;;;;;;7.17;4.53;;;5.30;99.90;;;;;;5062028;28;20786;-71
2024/01/30 01:01:37;;;;;;;10.00;5.20;;;5.20;99.90;;;;;;5054467;28;21000;-71
2024/01/30 01:04:07;;;;;;;12.37;5.43;;;5.20;99.90;;;;;;5053966;28;20484;-72
2024/01/30 01:06:34;;;;;;;8.20;4.90;;;5.20;99.90;;;;;;5055132;28;20983;-71
2024/01/30 01:09:04;;;;;;;11.67;6.00;;;5.20;99.90;;;;;;5060062;28;20543;-70
2024/01/30 01:11:31;;;;;;;15.63;6.03;;;5.20;99.90;;;;;;5053526;28;20465;-71
2024/01/30 01:13:59;;;;;;;10.40;5.70;;;5.20;99.90;;;;;;5053771;28;20417;-70
2024/01/30 01:16:26;;;;;;;9.13;4.83;;;5.20;99.90;;;;;;5052815;28;20432;-71
2024/01/30 01:18:54;;;;;;;15.63;5.90;;;5.20;99.90;;;;;;5053802;28;20460;-71
2024/01/30 01:21:39;;;;;;;9.00;5.40;;;5.20;99.90;;;;;;5053831;28;20479;-71
2024/01/30 01:24:06;;;;;;;10.23;5.87;;;5.20;99.90;;;;;;5054334;28;20422;-72
2024/01/30 01:26:37;;;;;;;7.50;5.53;;;5.20;99.90;;;;;;5054929;28;20865;-72
2024/01/30 01:29:09;;;;;;;13.13;5.63;;;5.20;99.90;;;;;;5053650;28;20518;-73
2024/01/30 01:31:56;;;;;;;11.00;5.80;;;5.20;99.90;;;;;;5055256;28;20519;-72
2024/01/30 01:34:25;;;;;;;15.03;6.23;;;5.20;99.90;;;;;;5055510;28;20434;-70
2024/01/30 01:36:55;;;;;;;8.60;6.23;;;5.10;99.90;;;;;;5055132;28;20461;-72
2024/01/30 01:39:23;;;;;;;10.73;6.70;;;5.10;99.90;;;;;;5055036;28;20524;-72
2024/01/30 01:41:50;;;;;;;9.60;6.27;;;5.10;99.90;;;;;;5054874;28;20501;-72
2024/01/30 01:44:19;;;;;;;11.30;5.40;;;5.10;99.90;;;;;;5053787;28;20908;-72
2024/01/30 01:47:03;;;;;;;12.70;6.37;;;5.10;99.90;;;;;;5053418;28;20458;-71
2024/01/30 01:49:36;;;;;;;6.70;4.83;;;5.00;99.90;;;;;;5053258;28;20496;-72
2024/01/30 01:52:06;;;;;;;13.13;5.60;;;5.00;99.90;;;;;;5053835;28;20544;-71
2024/01/30 01:54:36;;;;;;;13.50;7.37;;;5.00;99.90;;;;;;5053524;28;20511;-70
2024/01/30 01:57:04;;;;;;;14.00;5.03;;;4.90;99.90;;;;;;5053642;28;20454;-71
2024/01/30 01:59:33;;;;;;;11.93;5.33;;;4.90;99.90;;;;;;5063466;28;20860;-71
2024/01/30 02:02:09;;;;;;;12.60;6.33;;;4.90;99.90;;;;;;5073350;28;21042;-71
2024/01/30 02:04:37;;;;;;;11.57;6.43;;;4.90;99.90;;;;;;5074286;28;20846;-70
2024/01/30 02:07:06;;;;;;;10.43;5.63;;;4.90;99.90;;;;;;5074213;28;20424;-71
2024/01/30 02:09:33;;;;;;;9.67;6.20;;;4.90;99.90;;;;;;5073825;28;20511;-71
2024/01/30 02:12:02;;;;;;;8.07;5.20;;;4.90;99.90;;;;;;5073930;28;21093;-71
2024/01/30 02:14:28;;;;;;;9.20;5.40;;;4.80;99.90;;;;;;5073392;28;20714;-70
2024/01/30 02:17:12;;;;;;;11.93;6.60;;;4.80;99.90;;;;;;5072931;28;20420;-71
2024/01/30 02:19:39;;;;;;;11.33;5.67;;;4.80;99.90;;;;;;5075209;28;20440;-70
2024/01/30 02:22:25;;;;;;;9.97;5.83;;;4.70;99.90;;;;;;5080388;28;20457;-71
2024/01/30 02:24:52;;;;;;;13.37;7.10;;;4.70;99.90;;;;;;5084558;28;20473;-70
2024/01/30 02:27:25;;;;;;;9.70;5.57;;;4.70;99.90;;;;;;5089235;28;20431;-70
2024/01/30 02:30:10;;;;;;;9.50;4.90;;;4.70;99.90;;;;;;5085788;28;20539;-72
2024/01/30 02:32:37;;;;;;;8.10;5.77;;;4.60;99.90;;;;;;5053587;28;20460;-71
2024/01/30 02:35:05;;;;;;;7.57;5.70;;;4.60;99.90;;;;;;5052561;28;20483;-71
2024/01/30 02:37:36;;;;;;;8.57;6.10;;;4.60;99.90;;;;;;5053118;28;20902;-71
2024/01/30 02:40:04;;;;;;;11.83;5.70;;;4.70;99.90;;;;;;5052518;28;20417;-72
2024/01/30 02:42:33;;;;;;;11.43;5.80;;;4.70;99.90;;;;;;5051047;28;20981;-71
2024/01/30 02:45:02;;;;;;;9.80;6.23;;;4.70;99.90;;;;;;5052459;28;20953;-70
2024/01/30 02:47:29;;;;;;;11.20;5.93;;;4.60;99.90;;;;;;5052563;28;20453;-72
2024/01/30 02:50:01;;;;;;;13.47;6.47;;;4.60;99.90;;;;;;5064964;28;20557;-70
2024/01/30 02:52:30;;;;;;;16.57;6.93;;;4.70;99.90;;;;;;5072224;28;20527;-72
2024/01/30 02:54:58;;;;;;;8.40;5.87;;;4.60;99.90;;;;;;5072098;28;20467;-72
2024/01/30 02:57:31;;;;;;;7.47;5.20;;;4.60;99.90;;;;;;5072499;28;20433;-72
2024/01/30 02:59:58;;;;;;;11.30;6.00;;;4.60;99.90;;;;;;5072503;28;20433;-71
2024/01/30 03:03:02;;;;;;;11.47;5.80;;;4.60;99.90;;;;;;5072407;28;20514;-70
2024/01/30 03:05:47;;;;;;;9.77;5.80;;;4.60;99.90;;;;;;5072152;28;20472;-72
2024/01/30 03:08:14;;;;;;;14.40;5.20;;;4.70;99.90;;;;;;5073092;28;20494;-70
2024/01/30 03:10:42;;;;;;;8.03;5.43;;;4.70;99.90;;;;;;5073202;28;20575;-70
2024/01/30 03:13:40;;;;;;;6.53;4.77;;;4.70;99.90;;;;;;5072997;28;20522;-70
2024/01/30 03:16:57;;;;;;;11.43;6.07;;;4.70;99.90;;;;;;5073064;28;20428;-70
2024/01/30 03:19:24;;;;;;;9.43;5.67;;;4.60;99.90;;;;;;5071989;28;21017;-70
2024/01/30 03:22:43;;;;;;;11.97;6.00;;;4.60;99.90;;;;;;5073391;28;20980;-71
2024/01/30 03:25:19;;;;;;;10.13;6.50;;;4.70;99.90;;;;;;5073258;28;20424;-71
2024/01/30 03:27:47;;;;;;;13.50;5.60;;;4.70;99.90;;;;;;5073152;28;20522;-71
2024/01/30 03:30:14;;;;;;;11.10;6.20;;;4.70;99.90;;;;;;5076376;28;20470;-72
2024/01/30 03:32:56;;;;;;;7.90;5.97;;;4.70;99.90;;;;;;5077329;28;20874;-72
2024/01/30 03:35:35;;;;;;;11.10;6.30;;;4.60;99.90;;;;;;5077806;28;20522;-71
2024/01/30 03:38:05;;;;;;;12.30;6.40;;;4.60;99.90;;;;;;5081099;28;20432;-72
2024/01/30 03:40:32;;;;;;;7.67;5.97;;;4.50;99.90;;;;;;5079012;28;20452;-71
2024/01/30 03:43:16;;;;;;;9.83;6.00;;;4.60;99.90;;;;;;5076520;28;20475;-71
2024/01/30 03:45:44;;;;;;;9.93;7.00;;;4.50;99.90;;;;;;5076213;28;20943;-71
2024/01/30 03:48:23;;;;;;;10.17;5.13;;;4.50;99.90;;;;;;5076923;28;20485;-72
2024/01/30 03:50:50;;;;;;;9.83;5.13;;;4.50;99.90;;;;;;5076297;28;20502;-72
2024/01/30 03:53:17;;;;;;;10.60;5.40;;;4.50;99.90;;;;;;5076115;28;20472;-72
2024/01/30 03:56:29;;;;;;;10.27;6.67;;;4.50;99.90;;;;;;5076295;28;20439;-72
2024/01/30 03:58:59;;;;;;;13.67;6.90;;;4.50;99.90;;;;;;5076162;28;20793;-72
2024/01/30 04:01:27;;;;;;;8.87;6.40;;;4.50;99.90;;;;;;5068508;28;20840;-72
2024/01/30 04:04:08;;;;;;;11.90;7.60;;;4.40;99.90;;;;;;5074634;28;20476;-71
2024/01/30 04:06:41;;;;;;;9.07;5.83;;;4.50;99.90;;;;;;5076010;28;20518;-72
2024/01/30 04:09:08;;;;;;;8.97;5.63;;;4.50;99.90;;;;;;5076326;28;20542;-72
2024/01/30 04:11:35;;;;;;;10.10;5.63;;;4.60;99.90;;;;;;5077116;28;20464;-72
2024/01/30 04:14:28;;;;;;;12.97;6.80;;;4.60;99.90;;;;;;5077321;28;20493;-72
2024/01/30 04:16:55;;;;;;;12.00;6.57;;;4.50;99.90;;;;;;5077166;28;20433;-72
2024/01/30 04:19:22;;;;;;;9.20;5.50;;;4.50;99.90;;;;;;5076162;28;20455;-71
2024/01/30 04:21:55;;;;;;;9.27;5.83;;;4.60;99.90;;;;;;5075139;28;20534;-72
2024/01/30 04:24:24;;;;;;;8.10;5.63;;;4.60;99.90;;;;;;5075241;28;20528;-72
2024/01/30 04:26:51;;;;;;;8.40;5.30;;;4.60;99.90;;;;;;5076018;28;20478;-72
2024/01/30 04:29:20;;;;;;;9.13;6.27;;;4.50;99.90;;;;;;5075418;28;20457;-73
2024/01/30 04:42:24;;;;;;;14.50;6.13;;;4.40;99.90;;;;;;2880904;26;20486;-71
2024/01/30 04:44:52;;;;;;;10.40;6.80;;;4.40;99.90;;;;;;5077499;28;20448;-71
2024/01/30 04:47:20;;;;;;;9.63;5.67;;;4.40;99.90;;;;;;5075870;28;20433;-71
2024/01/30 04:50:42;;;;;;;12.30;5.50;;;4.50;99.90;;;;;;5075238;28;20487;-71
2024/01/30 04:53:09;;;;;;;9.33;5.90;;;4.40;99.90;;;;;;5075893;28;20479;-71
2024/01/30 04:55:37;;;;;;;8.63;5.77;;;4.40;99.90;;;;;;5076319;28;20435;-70
2024/01/30 04:58:29;;;;;;;15.77;6.33;;;4.40;99.90;;;;;;5081413;28;20460;-70
2024/01/30 05:01:05;;;;;;;10.70;6.10;;;4.40;99.90;;;;;;5077386;28;20807;-70
2024/01/30 05:03:34;;;;;;;9.93;6.67;;;4.40;99.90;;;;;;5075401;28;20440;-71
2024/01/30 05:06:01;;;;;;;11.50;6.87;;;4.50;99.90;;;;;;5074940;28;20448;-71
2024/01/30 05:08:36;;;;;;;9.87;5.83;;;4.60;99.90;;;;;;5075032;28;20851;-71
2024/01/30 05:11:03;;;;;;;9.37;7.00;;;4.60;99.90;;;;;;5074626;28;20480;-71
2024/01/30 05:13:32;;;;;;;11.60;6.10;;;4.60;99.90;;;;;;5074718;28;20459;-70
2024/01/30 05:16:07;;;;;;;9.23;5.07;;;4.60;99.90;;;;;;5074753;28;20848;-70
2024/01/30 05:18:37;;;;;;;10.33;5.47;;;4.60;99.90;;;;;;5074212;28;20888;-71
2024/01/30 05:37:28;;;;;;;10.83;6.07;;;4.50;99.90;;;;;;5146325;22;20866;-71
2024/01/30 05:39:58;;;;;;;7.47;6.03;;;4.50;99.90;;;;;;5053901;28;20436;-72
2024/01/30 05:42:27;;;;;;;10.63;5.53;;;4.50;99.90;;;;;;5035754;28;20467;-71
2024/01/30 05:45:05;;;;;;;9.80;6.30;;;4.50;99.90;;;;;;5054291;28;20459;-71
2024/01/30 05:47:32;;;;;;;9.37;5.87;;;4.50;99.90;;;;;;5054426;28;20444;-70
2024/01/30 05:50:00;;;;;;;8.50;5.30;;;4.50;99.90;;;;;;5053902;28;20482;-72
2024/01/30 05:52:40;;;;;;;14.43;5.90;;;4.50;99.90;;;;;;5054420;28;20874;-71
2024/01/30 05:55:09;;;;;;;11.97;5.23;;;4.50;99.90;;;;;;5036747;28;20433;-71
2024/01/30 05:57:38;;;;;;;14.27;6.43;;;4.50;99.90;;;;;;5054211;28;20437;-71
2024/01/30 06:00:17;;;;;;;8.40;4.70;;;4.50;99.90;;;;;;5053892;28;20508;-71
2024/01/30 06:03:03;;;;;;;9.83;6.87;;;4.50;99.90;;;;;;5054256;28;20473;-71
2024/01/30 06:05:31;;;;;;;12.17;7.07;;;4.60;99.90;;;;;;5053965;28;20494;-71
2024/01/30 06:08:00;;;;;;;17.80;6.57;;;4.60;99.90;;;;;;5054302;28;21000;-71
2024/01/30 06:10:30;;;;;;;9.77;5.73;;;4.50;99.90;;;;;;5053895;28;20465;-71
2024/01/30 06:12:58;;;;;;;10.63;6.30;;;4.50;99.90;;;;;;5035700;28;20473;-71
2024/01/30 06:15:29;;;;;;;14.80;6.67;;;4.50;99.90;;;;;;5053990;28;20433;-71
2024/01/30 06:18:29;;;;;;;9.80;6.57;;;4.50;99.90;;;;;;5053584;28;20557;-70
2024/01/30 06:20:56;;;;;;;9.73;6.40;;;4.50;99.90;;;;;;5053383;28;20530;-71
2024/01/30 06:23:25;;;;;;;12.83;6.80;;;4.50;99.90;;;;;;5053812;28;20503;-72
2024/01/30 06:25:52;;;;;;;10.90;7.00;;;4.50;99.90;;;;;;5054508;28;20469;-73
2024/01/30 06:28:22;;;;;;;12.13;7.23;;;4.50;99.90;;;;;;5058843;28;20426;-72
2024/01/30 06:30:49;;;;;;;13.77;9.40;;;4.50;99.90;;;;;;5069724;28;20567;-74
2024/01/30 06:33:16;;;;;;;17.70;9.27;;;4.50;99.90;;;;;;5067514;28;20465;-72
2024/01/30 06:35:45;;;;;;;19.63;9.13;;;4.50;99.90;;;;;;5054645;28;20846;-73
2024/01/30 06:38:13;;;;;;;15.47;8.93;;;4.50;99.90;;;;;;5053817;28;20425;-72
2024/01/30 06:40:41;;;;;;;14.13;7.63;;;4.40;99.90;;;;;;5053544;28;20460;-72
2024/01/30 06:45:46;;;;;;;10.77;6.70;;;4.50;99.90;;;;;;5558946;22;20504;-61
2024/01/30 06:48:13;;;;;;;11.90;6.93;;;4.40;99.90;;;;;;5055128;28;20503;-62
2024/01/30 06:50:40;;;;;;;10.47;6.40;;;4.50;99.90;;;;;;5053748;28;20481;-62
2024/01/30 06:53:07;;;;;;;15.33;6.77;;;4.50;99.90;;;;;;5053912;28;20437;-62
2024/01/30 06:55:34;;;;;;;9.43;6.80;;;4.40;99.90;;;;;;5055290;28;20593;-62
2024/01/30 06:58:04;;;;;;;16.03;7.63;;;4.40;99.90;;;;;;5038696;28;20524;-63
2024/01/30 07:00:32;;;;;;;9.67;7.30;;;4.40;99.90;;;;;;5039750;28;20505;-65
2024/01/30 07:02:58;;;;;;;19.00;8.47;;;4.50;99.90;;;;;;5047721;28;20450;-60
2024/01/30 07:05:25;;;;;;;14.30;7.80;;;4.40;99.90;;;;;;5051254;28;20445;-62
2024/01/30 07:07:52;;;;;;;14.83;6.67;;;4.50;99.90;;;;;;5045429;28;20445;-62
2024/01/30 07:10:19;;;;;;;15.20;8.00;;;4.50;99.90;;;;;;5039634;28;20569;-63
2024/01/30 07:12:46;;;;;;;14.73;8.90;;;4.60;99.90;;;;;;5039905;28;20537;-62
2024/01/30 07:15:16;;;;;;;13.40;7.53;;;4.50;99.90;;;;;;5038337;28;20450;-61
2024/01/30 07:17:43;;;;;;;13.97;7.90;;;4.60;99.90;;;;;;5037461;28;21177;-62
2024/01/30 07:20:10;;;;;;;18.43;8.80;;;4.60;99.90;;;;;;5037415;28;20526;-64
2024/01/30 07:22:37;;;;;;;16.83;7.80;;;4.60;99.90;;;;;;5035780;28;20493;-62
2024/01/30 07:25:05;;;;;;;15.20;7.67;;;4.60;99.90;;;;;;5037890;28;21010;-62
2024/01/30 07:27:35;;;;;;;14.30;8.43;;;4.70;99.90;;;;;;5034733;28;20472;-62
2024/01/30 07:30:02;;;;;;;13.90;7.93;;;4.80;99.90;;;;;;5036198;28;20490;-63
2024/01/30 07:32:30;;;;;;;14.93;8.00;;;4.80;99.90;;;;;;5036643;28;20529;-63
2024/01/30 07:34:57;;;;;;;15.70;7.90;;;4.80;99.90;;;;;;5036899;28;20534;-62
2024/01/30 07:37:24;;;;;;;18.87;8.73;;;4.90;99.90;;;;;;5035825;28;20557;-62
2024/01/30 07:39:51;;;;;;;16.70;8.43;;;4.90;99.90;;;;;;5035147;28;20538;-62
2024/01/30 07:42:18;;;;;;;20.53;7.33;;;4.90;99.90;;;;;;5036187;28;20525;-66
2024/01/30 07:44:45;;;;;;;20.87;8.57;;;5.00;99.90;;;;;;5036582;28;20557;-61
2024/01/30 07:47:12;;;;;;;13.83;7.73;;;5.90;99.90;;;;;;5036325;28;20484;-62
2024/01/30 07:49:40;;;;;;;25.50;9.70;;;5.80;99.90;;;;;;5036132;28;20473;-62
2024/01/30 07:52:07;;;;;;;21.47;10.27;;;5.70;99.90;;;;;;5036428;28;20565;-61
2024/01/30 07:54:34;;;;;;;15.43;9.00;;;5.60;99.90;;;;;;5035993;28;20915;-63
2024/01/30 07:57:01;;;;;;;15.70;10.10;;;5.60;99.90;;;;;;5035008;28;20502;-59
2024/01/30 07:59:28;;;;;;;15.10;9.27;;;5.60;99.90;;;;;;5036583;28;20442;-62
2024/01/30 08:01:55;;;;;;;12.07;8.73;;;5.50;99.90;;;;;;5035979;28;20469;-60
2024/01/30 08:04:22;;;;;;;14.57;8.23;;;5.50;99.90;;;;;;5036314;28;20448;-64
2024/01/30 08:06:50;;;;;;;18.40;7.40;;;5.50;99.90;;;;;;5036081;28;20909;-61
2024/01/30 08:09:17;;;;;;;11.43;7.00;;;5.50;99.90;;;;;;5035946;28;20529;-63
2024/01/30 08:11:44;;;;;;;16.00;8.77;;;5.40;99.90;;;;;;5035952;28;20516;-63
2024/01/30 08:14:13;;;;;;;14.57;7.23;;;5.40;99.90;;;;;;5035718;28;20489;-63
2024/01/30 08:16:40;;;;;;;10.73;6.73;;;5.40;99.90;;;;;;5037793;28;20442;-65
2024/01/30 08:19:07;;;;;;;16.00;8.40;;;5.30;99.90;;;;;;5037750;28;20445;-63
2024/01/30 08:21:36;;;;;;;9.30;5.63;;;5.30;99.90;;;;;;5037244;28;20435;-63
2024/01/30 08:24:05;;;;;;;10.47;7.10;;;5.30;99.90;;;;;;5031011;28;20481;-63
2024/01/30 08:26:32;;;;;;;11.27;7.13;;;5.30;99.90;;;;;;5035757;28;20608;-63
2024/01/30 08:28:59;;;;;;;13.47;6.90;;;5.40;99.90;;;;;;5035606;28;20616;-63
2024/01/30 08:31:26;;;;;;;10.00;7.70;;;5.40;99.90;;;;;;5035482;28;20479;-63
2024/01/30 08:33:53;;;;;;;22.10;11.00;;;5.50;99.90;;;;;;5035318;28;20449;-63
2024/01/30 08:36:20;;;;;;;16.00;9.10;;;6.80;99.90;;;;;;5035603;28;20443;-65
2024/01/30 08:38:46;;;;;;;15.50;8.27;;;6.90;99.90;;;;;;5035587;28;20463;-63
2024/01/30 08:41:15;;;;;;;17.63;8.07;;;6.70;99.90;;;;;;5035373;28;20890;-65
2024/01/30 08:43:42;;;;;;;11.13;6.50;;;6.50;99.90;;;;;;5035114;28;20462;-65
2024/01/30 08:46:09;;;;;;;14.13;7.50;;;6.40;99.90;;;;;;5035411;28;20517;-65
2024/01/30 08:54:30;;;;;;;10.13;7.80;;;6.30;99.90;;;;;;4717607;28;21038;-64
2024/01/30 08:57:04;;;;;;;16.17;7.67;;;6.20;99.90;;;;;;5068575;28;20505;-65
2024/01/30 08:59:33;;;;;;;11.90;7.10;;;6.30;99.90;;;;;;5048922;28;20446;-64
2024/01/30 09:02:01;;;;;;;13.17;7.40;;;6.40;99.90;;;;;;5067550;28;20457;-64
2024/01/30 09:04:28;;;;;;;14.73;7.77;;;6.40;99.90;;;;;;5077943;28;20553;-63
2024/01/30 09:06:56;;;;;;;18.73;7.73;;;6.30;99.90;;;;;;5072273;28;20920;-63
2024/01/30 09:09:23;;;;;;;8.53;6.07;;;6.30;99.90;;;;;;5064282;28;20447;-64
2024/01/30 09:11:50;;;;;;;12.93;6.23;;;6.40;99.90;;;;;;5056097;28;20937;-66
2024/01/30 09:14:19;;;;;;;12.87;6.13;;;6.40;99.90;;;;;;5055991;28;20934;-65
2024/01/30 09:16:48;;;;;;;12.97;6.43;;;6.50;99.90;;;;;;5054098;28;20440;-64
2024/01/30 09:19:15;;;;;;;12.30;7.13;;;6.50;99.90;;;;;;5053561;28;20439;-66
2024/01/30 09:21:43;;;;;;;21.10;8.17;;;6.60;99.90;;;;;;5054088;28;20494;-65
2024/01/30 09:24:10;;;;;;;22.43;11.60;;;6.70;99.90;;;;;;5054105;28;20470;-66
2024/01/30 09:26:37;;;;;;;19.00;9.10;;;7.10;99.90;;;;;;5054149;28;20430;-65
2024/01/30 09:29:04;;;;;;;8.53;6.40;;;7.60;99.90;;;;;;5055471;28;20447;-65
2024/01/30 09:31:39;;;;;;;13.80;8.10;;;7.40;99.90;;;;;;5056121;28;20861;-67
2024/01/30 09:34:14;;;;;;;12.43;7.20;;;7.20;99.90;;;;;;5055127;28;20520;-65
2024/01/30 09:36:41;;;;;;;11.27;6.70;;;7.10;99.90;;;;;;5054966;28;20433;-65
2024/01/30 09:39:08;;;;;;;11.10;6.90;;;7.00;99.90;;;;;;5054527;28;20489;-66
2024/01/30 09:41:56;;;;;;;22.13;6.50;;;7.00;99.90;;;;;;5053355;28;20462;-65
2024/01/30 09:44:26;;;;;;;9.83;6.97;;;7.00;99.90;;;;;;5054347;28;20887;-65
2024/01/30 09:46:58;;;;;;;11.83;6.27;;;7.10;99.90;;;;;;5054110;28;20455;-65
2024/01/30 09:49:34;;;;;;;10.73;6.63;;;7.10;99.90;;;;;;5054024;28;20856;-65
2024/01/30 09:52:01;;;;;;;6.97;4.87;;;7.20;99.90;;;;;;5053990;28;20494;-64
2024/01/30 09:54:31;;;;;;;11.10;6.70;;;7.30;99.90;;;;;;5055329;28;20462;-63
2024/01/30 09:56:58;;;;;;;17.70;6.10;;;7.50;99.90;;;;;;5065418;28;20870;-68
2024/01/30 09:59:25;;;;;;;10.17;6.53;;;7.70;99.90;;;;;;5073462;28;20461;-65
2024/01/30 10:01:55;;;;;;;14.87;6.50;;;7.80;99.90;;;;;;5073184;28;20519;-65
2024/01/30 10:04:22;;;;;;;10.27;5.93;;;8.00;99.90;;;;;;5073805;28;20424;-66
2024/01/30 10:06:49;;;;;;;16.13;10.10;;;8.30;99.90;;;;;;5074205;28;20559;-64
2024/01/30 10:09:19;;;;;;;12.70;7.33;;;8.70;99.90;;;;;;5074738;28;20467;-65
2024/01/30 10:11:46;;;;;;;13.10;8.47;;;9.10;99.90;;;;;;5073652;28;20536;-66
2024/01/30 10:14:13;;;;;;;13.50;7.43;;;9.20;99.90;;;;;;5073502;28;20904;-66
2024/01/30 10:16:49;;;;;;;11.87;7.60;;;9.20;99.90;;;;;;5074282;28;20483;-65
2024/01/30 10:19:25;;;;;;;7.80;5.20;;;9.20;99.90;;;;;;5074844;28;20791;-65
2024/01/30 10:21:52;;;;;;;10.50;6.17;;;9.30;99.90;;;;;;5073670;28;20501;-65
2024/01/30 10:24:29;;;;;;;14.40;5.47;;;9.40;99.90;;;;;;5073835;28;20427;-65
2024/01/30 10:26:56;;;;;;;12.57;5.93;;;9.30;99.90;;;;;;5074538;28;20430;-66
2024/01/30 10:29:23;;;;;;;14.60;6.60;;;9.40;99.90;;;;;;5073758;28;20423;-66
2024/01/30 10:32:02;;;;;;;10.50;6.00;;;9.30;99.90;;;;;;5074189;28;21084;-64
2024/01/30 10:34:50;;;;;;;10.47;6.53;;;9.30;99.90;;;;;;5074300;28;20495;-65
2024/01/30 10:37:24;;;;;;;7.40;5.40;;;9.30;99.90;;;;;;5074093;28;20775;-66
2024/01/30 10:39:56;;;;;;;13.33;5.80;;;9.20;99.90;;;;;;5070583;28;20451;-66
2024/01/30 10:42:28;;;;;;;12.23;6.17;;;9.20;99.90;;;;;;5074587;28;20542;-66
2024/01/30 10:45:03;;;;;;;6.70;5.17;;;9.20;99.90;;;;;;5073965;28;20434;-66
2024/01/30 10:47:31;;;;;;;10.17;6.47;;;9.20;99.90;;;;;;5054888;28;20507;-66
2024/01/30 10:49:58;;;;;;;7.93;6.20;;;9.20;99.90;;;;;;5073767;28;20475;-65
2024/01/30 10:55:52;;;;;;;8.13;4.90;;;9.20;99.90;;;;;;5073466;28;20476;-66
2024/01/30 10:58:19;;;;;;;12.80;5.60;;;9.20;99.90;;;;;;5065890;28;20443;-65
2024/01/30 11:00:46;;;;;;;13.33;5.97;;;9.20;99.90;;;;;;5068320;28;20512;-65
2024/01/30 11:03:14;;;;;;;6.47;4.90;;;9.10;99.90;;;;;;5074926;28;20455;-65
2024/01/30 11:05:42;;;;;;;8.87;5.60;;;9.10;99.90;;;;;;5073256;28;20458;-65
2024/01/30 11:08:13;;;;;;;9.50;4.70;;;9.10;99.90;;;;;;5073131;28;20419;-64
2024/01/30 11:10:49;;;;;;;7.90;5.07;;;9.10;99.90;;;;;;5073897;28;20488;-65
2024/01/30 11:13:16;;;;;;;9.87;5.67;;;9.10;99.90;;;;;;5088342;28;20461;-66
2024/01/30 11:15:43;;;;;;;9.63;4.47;;;9.20;99.90;;;;;;5087283;28;20462;-65
2024/01/30 11:18:11;;;;;;;13.87;5.90;;;9.20;99.90;;;;;;5087226;28;20912;-65
2024/01/30 11:20:48;;;;;;;9.33;5.10;;;9.20;99.90;;;;;;5087199;28;20419;-67
2024/01/30 11:23:15;;;;;;;8.13;5.27;;;9.20;99.90;;;;;;5086769;28;20458;-66
2024/01/30 11:25:45;;;;;;;13.17;5.50;;;9.20;99.90;;;;;;5086783;28;20422;-65
2024/01/30 11:28:16;;;;;;;10.57;5.50;;;9.00;99.90;;;;;;5089030;28;20509;-64
2024/01/30 11:30:44;;;;;;;10.53;5.67;;;9.00;99.90;;;;;;5079156;28;20434;-66
2024/01/30 11:33:14;;;;;;;13.23;5.30;;;8.90;99.90;;;;;;5074829;28;20483;-65
2024/01/30 11:35:41;;;;;;;8.67;5.60;;;8.90;99.90;;;;;;5074775;28;20450;-65
2024/01/30 11:38:19;;;;;;;9.83;5.80;;;8.90;99.90;;;;;;5074027;28;20801;-65
2024/01/30 11:40:46;;;;;;;16.70;6.03;;;8.90;99.90;;;;;;5073509;28;20434;-64
2024/01/30 11:43:19;;;;;;;9.50;6.17;;;8.90;99.90;;;;;;5072994;28;20978;-64
2024/01/30 11:45:46;;;;;;;8.40;6.10;;;8.90;99.90;;;;;;5073752;28;20556;-65
2024/01/30 11:48:14;;;;;;;9.73;5.53;;;8.90;99.90;;;;;;5073611;28;20435;-68
2024/01/30 11:50:41;;;;;;;11.80;5.50;;;8.90;99.90;;;;;;5075805;28;20450;-65
2024/01/30 11:53:08;;;;;;;7.80;5.47;;;9.00;99.90;;;;;;5077578;28;20892;-65
2024/01/30 11:55:37;;;;;;;9.00;5.37;;;9.10;99.90;;;;;;5077200;28;20507;-65
2024/01/30 11:58:05;;;;;;;16.47;6.27;;;9.10;99.90;;;;;;5076633;28;20457;-66
2024/01/30 12:00:34;;;;;;;11.90;5.33;;;9.40;99.90;;;;;;5075829;28;20557;-68
2024/01/30 12:03:13;;;;;;;8.33;5.60;;;10.20;99.90;;;;;;5077253;28;20470;-66
2024/01/30 12:05:43;;;;;;;6.30;5.00;;;10.70;99.90;;;;;;5078688;28;20415;-65
2024/01/30 12:11:31;;;;;;;7.50;4.80;;;10.50;99.90;;;;;;5076262;28;20469;-65
2024/01/30 12:14:17;;;;;;;6.77;5.70;;;10.30;99.90;;;;;;5076449;28;20427;-64
2024/01/30 12:17:04;;;;;;;8.30;5.17;;;10.10;99.90;;;;;;5076210;28;20934;-66
2024/01/30 12:19:31;;;;;;;9.30;4.87;;;10.00;99.90;;;;;;5076152;28;20438;-66
2024/01/30 12:21:59;;;;;;;11.90;6.53;;;10.00;99.90;;;;;;5076938;28;20451;-65
2024/01/30 12:24:30;;;;;;;14.00;5.87;;;10.00;99.90;;;;;;5076961;28;20522;-65
2024/01/30 12:26:58;;;;;;;9.70;6.03;;;9.80;99.90;;;;;;5077114;28;20434;-66
2024/01/30 12:29:27;;;;;;;6.70;5.23;;;9.70;99.90;;;;;;5073479;28;20901;-66
2024/01/30 12:32:05;;;;;;;10.47;5.40;;;9.70;99.90;;;;;;5075892;28;20493;-66
2024/01/30 12:34:32;;;;;;;8.50;5.30;;;9.60;99.90;;;;;;5075745;28;20415;-65
2024/01/30 12:36:59;;;;;;;10.07;6.27;;;9.60;99.90;;;;;;5075443;28;20423;-66
2024/01/30 12:39:36;;;;;;;12.17;6.30;;;9.60;99.90;;;;;;5075817;28;20430;-66
2024/01/30 12:42:03;;;;;;;7.70;5.27;;;9.60;99.90;;;;;;5076444;28;20870;-65
2024/01/30 12:44:30;;;;;;;11.97;6.23;;;9.60;99.90;;;;;;5075655;28;20430;-66
2024/01/30 12:47:10;;;;;;;10.03;6.30;;;9.70;99.90;;;;;;5057164;28;20450;-66
2024/01/30 12:49:37;;;;;;;14.80;6.63;;;9.70;99.90;;;;;;5075415;28;20419;-67
2024/01/30 12:52:19;;;;;;;8.80;6.10;;;9.60;99.90;;;;;;5075470;28;20479;-65
2024/01/30 12:54:46;;;;;;;12.60;6.57;;;9.60;99.90;;;;;;5074902;28;20500;-66
2024/01/30 12:57:13;;;;;;;12.20;7.17;;;9.50;99.90;;;;;;5074834;28;20447;-64
2024/01/30 12:59:42;;;;;;;8.03;5.80;;;9.50;99.90;;;;;;5075964;28;20426;-64
2024/01/30 13:02:10;;;;;;;10.03;6.63;;;9.50;99.90;;;;;;5074802;28;20489;-65
2024/01/30 13:04:46;;;;;;;12.10;7.47;;;9.40;99.90;;;;;;5074997;28;20430;-66
2024/01/30 13:07:13;;;;;;;11.10;6.53;;;9.40;99.90;;;;;;5075564;28;20438;-66
2024/01/30 13:09:50;;;;;;;9.87;7.30;;;9.40;99.90;;;;;;5075640;28;20458;-65
2024/01/30 13:12:17;;;;;;;11.20;7.00;;;9.50;99.90;;;;;;5075268;28;20489;-65
2024/01/30 13:14:46;;;;;;;12.93;8.00;;;9.50;99.90;;;;;;5075502;28;20498;-64
2024/01/30 13:17:15;;;;;;;10.27;5.73;;;9.50;99.90;;;;;;5075843;28;20411;-65
2024/01/30 13:19:42;;;;;;;10.33;5.37;;;9.40;99.90;;;;;;5075272;28;20795;-65
2024/01/30 13:22:11;;;;;;;7.57;5.47;;;9.50;99.90;;;;;;5074695;28;20469;-66
2024/01/30 13:24:40;;;;;;;11.50;6.00;;;9.40;99.90;;;;;;5075305;28;20470;-65
2024/01/30 13:27:08;;;;;;;11.43;6.30;;;9.50;99.90;;;;;;5074561;28;20427;-65
2024/01/30 13:29:35;;;;;;;9.30;6.30;;;9.50;99.90;;;;;;5075165;28;20427;-65
2024/01/30 13:32:11;;;;;;;7.67;5.20;;;9.50;99.90;;;;;;5074912;28;20539;-67
2024/01/30 13:34:49;;;;;;;12.83;6.67;;;9.50;99.90;;;;;;5074532;28;21075;-66
2024/01/30 13:37:15;;;;;;;10.23;6.03;;;9.70;99.90;;;;;;5074673;28;20867;-65
2024/01/30 13:39:50;;;;;;;9.43;5.40;;;9.60;99.90;;;;;;5074907;28;20848;-66
2024/01/30 13:42:17;;;;;;;6.53;5.37;;;9.70;99.90;;;;;;5074838;28;20464;-67
2024/01/30 13:44:44;;;;;;;12.13;5.93;;;9.70;99.90;;;;;;5074805;28;20457;-65
2024/01/30 13:47:12;;;;;;;9.70;5.17;;;9.70;99.90;;;;;;5074028;28;20436;-65
2024/01/30 13:49:45;;;;;;;8.63;4.93;;;9.60;99.90;;;;;;5074205;28;20463;-65
2024/01/30 13:52:15;;;;;;;9.10;6.30;;;9.60;99.90;;;;;;5074099;28;20482;-66